createdAt,value
2023-05-04T00:00:47.967Z,759.83
2023-05-04T00:05:58.477Z,755.00
2023-05-04T00:11:01.532Z,772.53
2023-05-04T00:16:03.714Z,762.47
2023-05-04T00:21:06.648Z,752.83
2023-05-04T00:26:11.025Z,739.27
2023-05-04T00:31:12.916Z,741.47
2023-05-04T00:36:15.883Z,734.83
2023-05-04T00:41:19.148Z,749.03
2023-05-04T00:46:23.281Z,736.60
2023-05-04T00:51:27.289Z,729.58
2023-05-04T00:56:29.962Z,730.08
2023-05-04T01:01:31.932Z,731.20
2023-05-04T01:06:34.415Z,732.73
2023-05-04T01:11:45.257Z,731.20
2023-05-04T01:16:47.428Z,745.30
2023-05-04T01:21:50.685Z,767.47
2023-05-04T01:26:57.450Z,744.50
2023-05-04T01:32:02.394Z,738.67
2023-05-04T01:37:04.516Z,754.57
2023-05-04T01:42:07.387Z,758.27
2023-05-04T01:47:09.352Z,749.83
2023-05-04T01:52:11.720Z,794.70
2023-05-04T01:57:13.612Z,843.67
2023-05-04T02:02:15.463Z,782.97
2023-05-04T02:07:17.519Z,724.00
2023-05-04T02:12:19.473Z,733.57
2023-05-04T02:17:21.445Z,687.00
2023-05-04T02:22:23.531Z,721.07
2023-05-04T02:27:27.995Z,758.03
2023-05-04T02:32:31.294Z,758.80
2023-05-04T02:37:37.252Z,757.50
2023-05-04T02:42:39.073Z,731.80
2023-05-04T02:47:41.375Z,775.60
2023-05-04T02:52:43.589Z,742.00
2023-05-04T02:57:48.288Z,735.38
2023-05-04T03:02:50.578Z,735.45
2023-05-04T03:07:53.195Z,744.10
2023-05-04T03:12:55.086Z,753.67
2023-05-04T03:17:57.396Z,759.38
2023-05-04T03:22:59.496Z,722.87
2023-05-04T03:28:01.933Z,716.07
2023-05-04T03:33:04.096Z,807.07
2023-05-04T03:38:07.647Z,751.92
2023-05-04T03:43:10.030Z,744.03
2023-05-04T03:48:12.106Z,764.03
2023-05-04T03:53:14.466Z,720.33
2023-05-04T03:58:18.674Z,757.93
2023-05-04T04:03:23.810Z,801.53
2023-05-04T04:08:27.845Z,781.90
2023-05-04T04:13:31.842Z,749.95
2023-05-04T04:18:35.332Z,757.10
2023-05-04T04:23:38.037Z,656.57
2023-05-04T04:28:41.333Z,704.27
2023-05-04T04:33:43.906Z,769.00
2023-05-04T04:38:54.790Z,756.47
2023-05-04T04:43:56.976Z,738.83
2023-05-04T04:49:01.832Z,746.13
2023-05-04T04:54:04.415Z,750.77
2023-05-04T04:59:07.406Z,754.93
2023-05-04T05:04:11.796Z,745.00
2023-05-04T05:09:15.011Z,747.13
2023-05-04T05:14:16.905Z,724.37
2023-05-04T05:19:19.055Z,734.53
2023-05-04T05:24:21.330Z,761.20
2023-05-04T05:29:25.612Z,749.07
2023-05-04T05:34:28.289Z,741.53
2023-05-04T05:39:30.576Z,731.40
2023-05-04T05:44:38.638Z,742.97
2023-05-04T05:49:41.892Z,762.30
2023-05-04T05:54:44.947Z,773.67
2023-05-04T05:59:48.543Z,767.00
2023-05-04T06:05:08.687Z,751.10
2023-05-04T06:10:11.219Z,755.97
2023-05-04T06:15:14.466Z,761.47
2023-05-04T06:20:16.539Z,751.10
2023-05-04T06:25:19.440Z,749.67
2023-05-04T06:30:24.395Z,749.75
2023-05-04T06:35:31.916Z,755.37
2023-05-04T06:40:35.348Z,750.20
2023-05-04T06:45:41.521Z,762.20
2023-05-04T06:50:43.838Z,766.57
2023-05-04T06:55:46.043Z,771.10
2023-05-04T07:00:49.338Z,754.65
2023-05-04T07:05:51.763Z,764.30
2023-05-04T07:10:53.758Z,775.27
2023-05-04T07:15:59.123Z,772.40
2023-05-04T07:21:16.282Z,769.67
2023-05-04T07:26:23.759Z,764.38
2023-05-04T07:31:30.092Z,767.30
2023-05-04T07:36:35.617Z,771.35
2023-05-04T07:41:37.899Z,771.58
2023-05-04T07:46:42.789Z,782.00
2023-05-04T07:51:44.705Z,793.20
2023-05-04T07:56:47.092Z,782.80
2023-05-04T08:01:49.104Z,799.17
2023-05-04T08:06:51.431Z,798.93
2023-05-04T08:11:58.520Z,789.57
2023-05-04T08:17:03.004Z,808.33
2023-05-04T08:22:05.966Z,821.40
2023-05-04T08:27:09.030Z,834.27
2023-05-04T08:32:11.910Z,790.23
2023-05-04T08:37:13.762Z,793.27
2023-05-04T08:42:27.080Z,802.53
2023-05-04T08:47:32.129Z,845.50
2023-05-04T08:52:38.123Z,822.70
2023-05-04T08:57:42.742Z,843.17
2023-05-04T09:02:45.869Z,847.58
2023-05-04T09:07:51.057Z,877.00
2023-05-04T09:12:59.029Z,884.97
2023-05-04T09:18:06.638Z,904.65
2023-05-04T09:23:13.694Z,902.78
2023-05-04T09:28:17.888Z,907.92
2023-05-04T09:33:30.116Z,924.78
2023-05-04T09:38:32.630Z,933.50
2023-05-04T09:43:44.923Z,936.33
2023-05-04T09:49:00.355Z,955.28
2023-05-04T09:54:04.956Z,969.72
2023-05-04T09:59:08.817Z,974.50
2023-05-04T10:04:10.749Z,997.10
2023-05-04T10:09:13.647Z,982.13
2023-05-04T10:14:15.534Z,1007.92
2023-05-04T10:19:31.788Z,995.70
2023-05-04T10:24:36.296Z,1002.30
2023-05-04T10:29:40.865Z,1015.08
2023-05-04T10:34:45.668Z,1018.55
2023-05-04T10:39:54.478Z,1029.07
2023-05-04T10:44:57.923Z,1028.35
2023-05-04T10:50:11.103Z,1044.68
2023-05-04T10:55:22.158Z,1058.78
2023-05-04T11:00:43.709Z,1055.78
2023-05-04T11:05:51.053Z,1070.63
2023-05-04T11:11:12.676Z,1069.97
2023-05-04T11:16:24.715Z,1068.53
2023-05-04T11:21:28.576Z,1070.13
2023-05-04T11:26:30.507Z,1074.60
2023-05-04T11:31:36.134Z,1075.22
2023-05-04T11:36:38.721Z,1083.93
2023-05-04T11:41:44.743Z,1094.68
2023-05-04T11:46:48.165Z,1097.30
2023-05-04T11:51:50.654Z,1109.78
2023-05-04T11:57:01.313Z,1114.03
2023-05-04T12:02:04.268Z,1119.95
2023-05-04T12:07:08.575Z,1116.20
2023-05-04T12:12:11.995Z,1123.80
2023-05-04T12:17:14.713Z,1119.55
2023-05-04T12:22:18.072Z,1121.13
2023-05-04T12:27:20.304Z,1126.55
2023-05-04T12:32:22.520Z,1130.43
2023-05-04T12:37:32.593Z,1131.90
2023-05-04T12:42:42.255Z,1140.57
2023-05-04T12:47:44.138Z,1131.35
2023-05-04T12:52:52.309Z,1125.88
2023-05-04T12:57:54.298Z,1115.95
2023-05-04T13:02:56.259Z,1133.30
2023-05-04T13:07:58.386Z,1133.13
2023-05-04T13:13:03.466Z,1128.45
2023-05-04T13:18:07.913Z,1139.75
2023-05-04T13:23:10.400Z,1139.15
2023-05-04T13:28:12.292Z,1145.90
2023-05-04T13:33:28.743Z,1143.82
2023-05-04T13:38:31.225Z,1147.50
2023-05-04T13:43:33.172Z,1151.50
2023-05-04T13:48:36.798Z,1147.22
2023-05-04T13:53:39.129Z,1146.30
2023-05-04T13:58:40.950Z,1145.35
2023-05-04T14:03:42.878Z,1150.68
2023-05-04T14:08:44.786Z,1146.78
2023-05-04T14:13:49.306Z,1149.68
2023-05-04T14:18:52.514Z,1147.00
2023-05-04T14:23:55.425Z,1151.55
2023-05-04T14:28:57.313Z,1146.40
2023-05-04T14:33:59.854Z,1152.88
2023-05-04T14:39:02.962Z,1145.20
2023-05-04T14:44:05.586Z,1146.90
2023-05-04T14:49:07.850Z,1144.63
2023-05-04T14:54:09.682Z,1148.70
2023-05-04T14:59:11.675Z,1150.15
2023-05-04T15:04:13.705Z,1147.60
2023-05-04T15:09:16.677Z,1154.10
2023-05-04T15:14:18.637Z,1154.50
2023-05-04T15:19:21.683Z,1157.07
2023-05-04T15:24:24.865Z,1156.55
2023-05-04T15:29:29.627Z,1158.05
2023-05-04T15:34:33.712Z,1150.78
2023-05-04T15:39:37.928Z,1149.03
2023-05-04T15:44:40.239Z,1152.45
2023-05-04T15:49:42.937Z,1150.97
2023-05-04T15:54:48.798Z,1154.85
2023-05-04T15:59:51.316Z,1146.73
2023-05-04T16:05:16.485Z,1137.68
2023-05-04T16:10:18.438Z,1139.22
2023-05-04T16:15:23.548Z,1143.15
2023-05-04T16:20:26.695Z,1141.25
2023-05-04T16:25:29.732Z,1147.22
2023-05-04T16:30:33.381Z,1145.22
2023-05-04T16:35:37.055Z,1146.57
2023-05-04T16:40:41.594Z,1148.78
2023-05-04T16:45:45.834Z,1138.22
2023-05-04T16:50:49.149Z,1133.80
2023-05-04T16:55:51.506Z,1140.70
2023-05-04T17:00:53.969Z,1132.70
2023-05-04T17:05:56.259Z,1132.38
2023-05-04T17:11:05.772Z,1122.80
2023-05-04T17:16:08.761Z,1114.25
2023-05-04T17:21:10.760Z,1122.28
2023-05-04T17:26:12.705Z,1116.68
2023-05-04T17:31:17.586Z,1118.75
2023-05-04T17:36:19.477Z,1121.07
2023-05-04T17:41:21.943Z,1113.25
2023-05-04T17:46:26.074Z,1105.80
2023-05-04T17:51:34.792Z,1103.35
2023-05-04T17:56:40.899Z,1101.00
2023-05-04T18:01:48.856Z,1091.63
2023-05-04T18:06:51.183Z,1092.75
2023-05-04T18:11:56.002Z,1098.63
2023-05-04T18:16:57.957Z,1083.95
2023-05-04T18:22:03.324Z,1078.93
2023-05-04T18:27:06.602Z,1074.68
2023-05-04T18:32:16.786Z,1070.97
2023-05-04T18:37:18.767Z,1064.47
2023-05-04T18:42:20.664Z,1064.40
2023-05-04T18:47:23.271Z,1061.28
2023-05-04T18:52:25.685Z,1057.85
2023-05-04T18:57:29.971Z,1044.85
2023-05-04T19:02:33.439Z,1041.50
2023-05-04T19:07:35.461Z,1030.47
2023-05-04T19:12:38.459Z,1035.85
2023-05-04T19:17:41.023Z,1032.80
2023-05-04T19:22:43.875Z,1023.78
2023-05-04T19:27:46.479Z,1013.92
2023-05-04T19:32:49.384Z,1009.38
2023-05-04T19:37:52.351Z,1002.40
2023-05-04T19:42:55.699Z,992.30
2023-05-04T19:47:57.631Z,990.78
2023-05-04T19:52:59.566Z,986.20
2023-05-04T19:58:02.349Z,974.25
2023-05-04T20:03:04.830Z,979.42
2023-05-04T20:08:09.682Z,976.83
2023-05-04T20:13:11.816Z,983.03
2023-05-04T20:18:13.862Z,956.97
2023-05-04T20:23:19.042Z,957.55
2023-05-04T20:28:23.505Z,961.60
2023-05-04T20:33:25.759Z,959.28
2023-05-04T20:38:27.669Z,954.65
2023-05-04T20:43:29.554Z,960.08
2023-05-04T20:48:31.854Z,953.17
2023-05-04T20:53:39.742Z,948.53
2023-05-04T20:58:45.241Z,938.00
2023-05-04T21:03:47.630Z,937.42
2023-05-04T21:08:53.424Z,935.58
2023-05-04T21:13:55.320Z,939.42
2023-05-04T21:18:59.576Z,943.83
2023-05-04T21:29:19.146Z,936.25
2023-05-04T21:34:21.172Z,935.70
2023-05-04T21:39:25.155Z,930.55
2023-05-04T21:44:27.328Z,925.97
2023-05-04T21:49:29.324Z,929.70
2023-05-04T21:54:36.068Z,911.25
2023-05-04T21:59:38.034Z,917.17
2023-05-04T22:04:43.861Z,912.40
2023-05-04T22:09:46.716Z,910.22
2023-05-04T22:14:49.014Z,917.75
2023-05-04T22:19:50.842Z,914.70
2023-05-04T22:24:52.668Z,919.85
2023-05-04T22:29:54.996Z,916.97
2023-05-04T22:35:00.225Z,919.50
2023-05-04T22:40:05.089Z,914.85
2023-05-04T22:45:08.921Z,910.35
2023-05-04T22:50:11.341Z,921.03
2023-05-04T22:55:13.530Z,911.70
2023-05-04T23:00:19.625Z,912.65
2023-05-04T23:05:21.898Z,910.47
2023-05-04T23:10:26.206Z,913.47
2023-05-04T23:15:30.745Z,899.00
2023-05-04T23:20:39.102Z,912.00
2023-05-04T23:25:41.305Z,904.03
2023-05-04T23:30:47.442Z,901.63
2023-05-04T23:35:50.076Z,893.95
2023-05-04T23:40:53.947Z,890.35
2023-05-04T23:46:03.938Z,885.00
2023-05-04T23:51:07.161Z,897.58
2023-05-04T23:56:19.490Z,873.55
